Terminal Aerodrome Forecast
Issued by NWS

Home | Current Version | Previous Version | Graphics & Text | Print | Product List | Glossary On
Versions: 1 2 3 4 5 6 7 8 9 10 11 12 13 14 15 16 17
000
FTUS43 KGRB 290800 AAA
TAFRHI
TAF AMD
KRHI 290857Z 2909/3006 27010G18KT P6SM BKN025 OVC040
      TEMPO 2909/2913 -SHRASN BKN015
     FM291400 29008KT P6SM BKN020 OVC035
     FM292200 27003KT P6SM BKN020 BKN035=

USA.gov is the U.S. government's official web portal to all federal, state and local government web resources and services.